Detall de PIREP

Printer-friendly versionPDF version

[2014/04/17 08:42:00]
Flight IATA:CT1005
Pilot Number:011
Company ICAO:CAT
Aircraft Type:B738/F
PAX:160
Departing Airport: LBSF
Destination Airport: LDRI
Alternate Airport:LDPL
Online: VATSIM
Route:MOREK P127 VELBA UP127 SKOPJE UP92 MAVAR Y400 RETRA UL604 GILUK UM867 SOLGU UL614 PALEZ UL862 GISER UL868 KULEN
Flight Level:F310
No Slew and time accel
No pause
Crash detect
Detect pilot in Cockpit between each 30 and 45 minutes
08:42 Zero fuel Weight: 135490 Lbs, Fuel Weight: 16395 Lbs
08:42 VATSIM:LBSF 170800Z VRB01MPS 6000 -RA SCT004 OVC015 04/04 Q1011 NOSIG
08:42 VATSIM:LDRI 170800Z 33006KT 240V120 9999 FEW040 12/M04 Q1017
08:44 Parking Brakes off
08:53 Take-off
08:53 Take off Weight: 151126 Lbs
08:53 Wind: 052º @ 006 Knots Heading: 093º
08:53 POS N42º 41´ 43´´ E023º 24´ 47´´
08:53 Flaps:5 at 177 Knots
08:53 Gear Up: 185 Knots
08:54 Flaps:4 at 239 Knots
08:54 Flaps:3 at 242 Knots
08:54 Flaps:2 at 242 Knots
08:54 Flaps:1 at 243 Knots
08:54 Flaps:0 at 244 Knots
09:06 TOC
09:06 Fuel Weight: 12752 Lb
09:08 Wind:020º@011 Knots Heading: 272º Ground Speed: 437 Knots Altitude 30928 ft
09:23 Wind:181º@004 Knots Heading: 303º Ground Speed: 447 Knots Altitude 30902 ft
09:38 Wind:309º@026 Knots Heading: 330º Ground Speed: 428 Knots Altitude 30944 ft
09:53 Wind:317º@029 Knots Heading: 288º Ground Speed: 416 Knots Altitude 31046 ft
09:56 TOD
09:56 Fuel Weight: 8360 Lb
10:08 Wind:348º@023 Knots Heading: 333º Ground Speed: 312 Knots Altitude 11601 ft
10:16 Flaps:1 at 229 Knots
10:16 Flaps:2 at 225 Knots
10:17 Flaps:3 at 235 Knots
10:18 Flaps:4 at 222 Knots
10:18 Flaps:5 at 205 Knots
10:19 Flaps:6 at 187 Knots
10:19 Gear Down: 180 Knots
10:20 Flaps:7 at 169 Knots
10:21 Flaps:8 at 158 Knots
10:23 Wind:012º@010 Knots Heading: 334º Ground Speed: 142 Knots Altitude 2496 ft
10:26 TouchDown:Rate -235 ft/min Speed: 120 Knots
10:26 VATSIM:LDRI 171000Z 01010G26KT 310V060 9999 FEW040 SCT053 12/M03 Q1017
10:26 Land
10:26 Wind:358º@010 Knots
10:26 Heading: 325º
10:26 Flight Duration: 01:33
10:26 Landing Weight: 141964 Lbs
10:26 POS N45º 13´ 17´´ E014º 33´ 56´´
10:28 Parking brakes on
10:28 Block to Block Duration: 01:44
10:28 Final Fuel: 6294 Lbls
10:28 Spent Fuel: 10101 Lbls
10:28 Flight Length: 470 NM
10:28 TOD Land Length: 97 NM

Exportar CSV

Powered by Drupal - Modified by Danger4k